Airfield :
LOGIN :

Register | Disclaimer

   EN    FR    IT 

 










Legend :    VFR   Marginal VFR   IFR   Intensive IFR   Very Intensive IFR
Visi :
Ceiling :
>= 8 km
>= 3000ft
5 to 8 km
1000 to 3000 ft
1500m to 5 km
500 to 1000 ft
800 to 1500m
200 to 500 ft
< 800m
< 200 ft
Symbols :   Thunderstorms  Fog  Heavy snow  Heavy precipitations  Wind > 20 kt
SIGMETs :     Misc.  Thunderstorms  Icing  Turbulence  Mountain Waves  Volcanic Ashes






- Airport Elevation : 276 ft


LYVR - Vršac International

CURRENT METAR :
  • 012330Z AUTO 13015KT 110V170 CAVOK 30/13 Q1013

EXPIRED METARs :
  • 012300Z AUTO 14011KT CAVOK 30/13 Q1013
  • 012200Z AUTO 14012KT CAVOK 30/13 Q1013
  • 011630Z 23003KT 190V260 CAVOK 36/13 Q1011 NOSIG
  • 012130Z AUTO 13012KT CAVOK 31/13 Q1013
  • 012100Z AUTO 13014KT CAVOK 31/14 Q1013

TAF TAF LYVR
Valid from the 01 at 18:00 until the 02 at 18:00 UTC


011700Z 0118/0218 18005KT CAVOK TX32/0213Z TN21/0203Z
BECMG 0203/0205 31010KT
PROB30
TEMPO 0203/0206 VRB15KT 5000 TSRA SCT030CB SCT040
PROB40
TEMPO 0213/0217 VRB15KT 5000 TSRA SCT030CB SCT040



MET'MAP, your aeronautical weather chart ! - Copyright ORBIFLY December 2007 - Disclaimer

ORBIFLY MET'MAP TEAM :

Programming & Development : Alexandra Zaïnal
Original concept : Baudouin d'Aumeries
Technical & hardware support : Manuel Goepfert
Assistance : Marc-Olivier Méhu




SOURCES & CREDITS :

   NOAA